sensor_id;sensor_type;location;lat;lon;timestamp;temperature;humidity
33095;DHT22;19459;53.044;8.910;2024-03-02T00:00:16;7.20;99.90
33095;DHT22;19459;53.044;8.910;2024-03-02T00:02:45;7.20;99.90
33095;DHT22;19459;53.044;8.910;2024-03-02T00:05:22;7.20;99.90
33095;DHT22;19459;53.044;8.910;2024-03-02T00:08:02;7.20;99.90
33095;DHT22;19459;53.044;8.910;2024-03-02T00:10:40;7.20;99.90
33095;DHT22;19459;53.044;8.910;2024-03-02T00:13:09;7.20;99.90
33095;DHT22;19459;53.044;8.910;2024-03-02T00:15:47;7.10;99.90
33095;DHT22;19459;53.044;8.910;2024-03-02T00:18:40;7.10;99.90
33095;DHT22;19459;53.044;8.910;2024-03-02T00:21:06;7.00;99.90
33095;DHT22;19459;53.044;8.910;2024-03-02T00:23:35;7.00;99.90
33095;DHT22;19459;53.044;8.910;2024-03-02T00:26:01;7.00;99.90
33095;DHT22;19459;53.044;8.910;2024-03-02T00:28:35;7.00;99.90
33095;DHT22;19459;53.044;8.910;2024-03-02T00:36:10;7.00;99.90
33095;DHT22;19459;53.044;8.910;2024-03-02T00:38:50;6.90;99.90
33095;DHT22;19459;53.044;8.910;2024-03-02T00:41:30;6.90;99.90
33095;DHT22;19459;53.044;8.910;2024-03-02T00:44:04;6.90;99.90
33095;DHT22;19459;53.044;8.910;2024-03-02T00:46:41;6.90;99.90
33095;DHT22;19459;53.044;8.910;2024-03-02T00:49:24;6.90;99.90
33095;DHT22;19459;53.044;8.910;2024-03-02T00:51:53;6.90;99.90
33095;DHT22;19459;53.044;8.910;2024-03-02T00:54:25;6.80;99.90
33095;DHT22;19459;53.044;8.910;2024-03-02T00:56:52;6.80;99.90
33095;DHT22;19459;53.044;8.910;2024-03-02T00:59:22;6.80;99.90
33095;DHT22;19459;53.044;8.910;2024-03-02T01:01:48;6.70;99.90
33095;DHT22;19459;53.044;8.910;2024-03-02T01:04:15;6.70;99.90
33095;DHT22;19459;53.044;8.910;2024-03-02T01:06:42;6.70;99.90
33095;DHT22;19459;53.044;8.910;2024-03-02T01:09:09;6.70;99.90
33095;DHT22;19459;53.044;8.910;2024-03-02T01:11:34;6.60;99.90
33095;DHT22;19459;53.044;8.910;2024-03-02T01:14:00;6.60;99.90
33095;DHT22;19459;53.044;8.910;2024-03-02T01:16:26;6.60;99.90
33095;DHT22;19459;53.044;8.910;2024-03-02T01:18:52;6.50;99.90
33095;DHT22;19459;53.044;8.910;2024-03-02T01:21:18;6.50;99.90
33095;DHT22;19459;53.044;8.910;2024-03-02T01:23:43;6.50;99.90
33095;DHT22;19459;53.044;8.910;2024-03-02T01:26:09;6.40;99.90
33095;DHT22;19459;53.044;8.910;2024-03-02T01:28:35;6.40;99.90
33095;DHT22;19459;53.044;8.910;2024-03-02T01:31:01;6.40;99.90
33095;DHT22;19459;53.044;8.910;2024-03-02T01:33:27;6.40;99.90
33095;DHT22;19459;53.044;8.910;2024-03-02T01:35:53;6.40;99.90
33095;DHT22;19459;53.044;8.910;2024-03-02T01:38:19;6.50;99.90
33095;DHT22;19459;53.044;8.910;2024-03-02T01:40:45;6.40;99.90
33095;DHT22;19459;53.044;8.910;2024-03-02T01:43:11;6.40;99.90
33095;DHT22;19459;53.044;8.910;2024-03-02T01:45:37;6.40;99.90
33095;DHT22;19459;53.044;8.910;2024-03-02T01:48:07;6.40;99.90
33095;DHT22;19459;53.044;8.910;2024-03-02T01:50:33;6.40;99.90
33095;DHT22;19459;53.044;8.910;2024-03-02T01:53:00;6.40;99.90
33095;DHT22;19459;53.044;8.910;2024-03-02T01:55:28;6.40;99.90
33095;DHT22;19459;53.044;8.910;2024-03-02T01:57:56;6.40;99.90
33095;DHT22;19459;53.044;8.910;2024-03-02T02:00:22;6.40;99.90
33095;DHT22;19459;53.044;8.910;2024-03-02T02:02:50;6.40;99.90
33095;DHT22;19459;53.044;8.910;2024-03-02T02:05:15;6.40;99.90
33095;DHT22;19459;53.044;8.910;2024-03-02T02:07:42;6.40;99.90
33095;DHT22;19459;53.044;8.910;2024-03-02T02:10:09;6.40;99.90
33095;DHT22;19459;53.044;8.910;2024-03-02T02:12:35;6.40;99.90
33095;DHT22;19459;53.044;8.910;2024-03-02T02:15:04;6.40;99.90
33095;DHT22;19459;53.044;8.910;2024-03-02T02:17:47;6.40;99.90
33095;DHT22;19459;53.044;8.910;2024-03-02T02:20:12;6.30;99.90
33095;DHT22;19459;53.044;8.910;2024-03-02T02:22:39;6.30;99.90
33095;DHT22;19459;53.044;8.910;2024-03-02T02:25:05;6.30;99.90
33095;DHT22;19459;53.044;8.910;2024-03-02T02:27:31;6.30;99.90
33095;DHT22;19459;53.044;8.910;2024-03-02T02:29:57;6.20;99.90
33095;DHT22;19459;53.044;8.910;2024-03-02T02:32:22;6.20;99.90
33095;DHT22;19459;53.044;8.910;2024-03-02T02:34:52;6.20;99.90
33095;DHT22;19459;53.044;8.910;2024-03-02T02:37:18;6.20;99.90
33095;DHT22;19459;53.044;8.910;2024-03-02T02:39:44;6.20;99.90
33095;DHT22;19459;53.044;8.910;2024-03-02T02:42:12;6.20;99.90
33095;DHT22;19459;53.044;8.910;2024-03-02T02:44:38;6.20;99.90
33095;DHT22;19459;53.044;8.910;2024-03-02T02:47:03;6.20;99.90
33095;DHT22;19459;53.044;8.910;2024-03-02T02:49:29;6.10;99.90
33095;DHT22;19459;53.044;8.910;2024-03-02T02:51:55;6.10;99.90
33095;DHT22;19459;53.044;8.910;2024-03-02T02:54:20;6.10;99.90
33095;DHT22;19459;53.044;8.910;2024-03-02T02:56:46;6.10;99.90
33095;DHT22;19459;53.044;8.910;2024-03-02T02:59:12;6.10;99.90
33095;DHT22;19459;53.044;8.910;2024-03-02T03:01:38;6.10;99.90
33095;DHT22;19459;53.044;8.910;2024-03-02T03:04:03;6.00;99.90
33095;DHT22;19459;53.044;8.910;2024-03-02T03:06:29;6.00;99.90
33095;DHT22;19459;53.044;8.910;2024-03-02T03:08:55;6.10;99.90
33095;DHT22;19459;53.044;8.910;2024-03-02T03:11:21;6.00;99.90
33095;DHT22;19459;53.044;8.910;2024-03-02T03:13:48;6.10;99.90
33095;DHT22;19459;53.044;8.910;2024-03-02T03:16:14;6.00;99.90
33095;DHT22;19459;53.044;8.910;2024-03-02T03:18:39;6.10;99.90
33095;DHT22;19459;53.044;8.910;2024-03-02T03:21:05;6.10;99.90
33095;DHT22;19459;53.044;8.910;2024-03-02T03:23:31;6.10;99.90
33095;DHT22;19459;53.044;8.910;2024-03-02T03:25:56;6.00;99.90
33095;DHT22;19459;53.044;8.910;2024-03-02T03:28:22;6.10;99.90
33095;DHT22;19459;53.044;8.910;2024-03-02T03:30:48;6.10;99.90
33095;DHT22;19459;53.044;8.910;2024-03-02T03:33:14;6.10;99.90
33095;DHT22;19459;53.044;8.910;2024-03-02T03:35:40;6.00;99.90
33095;DHT22;19459;53.044;8.910;2024-03-02T03:38:05;6.10;99.90
33095;DHT22;19459;53.044;8.910;2024-03-02T03:40:32;6.00;99.90
33095;DHT22;19459;53.044;8.910;2024-03-02T03:42:57;6.00;99.90
33095;DHT22;19459;53.044;8.910;2024-03-02T03:45:25;6.10;99.90
33095;DHT22;19459;53.044;8.910;2024-03-02T03:47:53;6.10;99.90
33095;DHT22;19459;53.044;8.910;2024-03-02T03:50:19;6.00;99.90
33095;DHT22;19459;53.044;8.910;2024-03-02T03:52:45;6.00;99.90
33095;DHT22;19459;53.044;8.910;2024-03-02T03:55:11;6.00;99.90
33095;DHT22;19459;53.044;8.910;2024-03-02T03:57:36;5.90;99.90
33095;DHT22;19459;53.044;8.910;2024-03-02T04:00:03;6.00;99.90
33095;DHT22;19459;53.044;8.910;2024-03-02T04:02:29;5.90;99.90
33095;DHT22;19459;53.044;8.910;2024-03-02T04:04:55;5.90;99.90
33095;DHT22;19459;53.044;8.910;2024-03-02T04:07:21;6.00;99.90
33095;DHT22;19459;53.044;8.910;2024-03-02T04:09:46;6.00;99.90
33095;DHT22;19459;53.044;8.910;2024-03-02T04:12:12;6.00;99.90
33095;DHT22;19459;53.044;8.910;2024-03-02T04:14:38;6.00;99.90
33095;DHT22;19459;53.044;8.910;2024-03-02T04:17:04;6.10;99.90
33095;DHT22;19459;53.044;8.910;2024-03-02T04:19:30;6.00;99.90
33095;DHT22;19459;53.044;8.910;2024-03-02T04:21:56;6.00;99.90
33095;DHT22;19459;53.044;8.910;2024-03-02T04:24:21;6.10;99.90
33095;DHT22;19459;53.044;8.910;2024-03-02T04:26:47;6.10;99.90
33095;DHT22;19459;53.044;8.910;2024-03-02T04:29:13;6.10;99.90
33095;DHT22;19459;53.044;8.910;2024-03-02T04:31:39;6.10;99.90
33095;DHT22;19459;53.044;8.910;2024-03-02T04:34:04;6.20;99.90
33095;DHT22;19459;53.044;8.910;2024-03-02T04:36:30;6.20;99.90
33095;DHT22;19459;53.044;8.910;2024-03-02T04:38:56;6.20;99.90
33095;DHT22;19459;53.044;8.910;2024-03-02T04:41:22;6.20;99.90
33095;DHT22;19459;53.044;8.910;2024-03-02T04:43:47;6.20;99.90
33095;DHT22;19459;53.044;8.910;2024-03-02T04:46:13;6.20;99.90
33095;DHT22;19459;53.044;8.910;2024-03-02T04:48:39;6.20;99.90
33095;DHT22;19459;53.044;8.910;2024-03-02T04:51:05;6.30;99.90
33095;DHT22;19459;53.044;8.910;2024-03-02T04:53:30;6.20;99.90
33095;DHT22;19459;53.044;8.910;2024-03-02T04:55:56;6.20;99.90
33095;DHT22;19459;53.044;8.910;2024-03-02T04:58:41;6.20;99.90
33095;DHT22;19459;53.044;8.910;2024-03-02T05:01:06;6.20;99.90
33095;DHT22;19459;53.044;8.910;2024-03-02T05:03:32;6.20;99.90
33095;DHT22;19459;53.044;8.910;2024-03-02T05:06:00;6.20;99.90
33095;DHT22;19459;53.044;8.910;2024-03-02T05:08:25;6.10;99.90
33095;DHT22;19459;53.044;8.910;2024-03-02T05:10:51;6.10;99.90
33095;DHT22;19459;53.044;8.910;2024-03-02T05:13:17;6.00;99.90
33095;DHT22;19459;53.044;8.910;2024-03-02T05:15:43;6.00;99.90
33095;DHT22;19459;53.044;8.910;2024-03-02T05:18:09;6.00;99.90
33095;DHT22;19459;53.044;8.910;2024-03-02T05:20:34;6.00;99.90
33095;DHT22;19459;53.044;8.910;2024-03-02T05:23:00;6.00;99.90
33095;DHT22;19459;53.044;8.910;2024-03-02T05:25:26;5.90;99.90
33095;DHT22;19459;53.044;8.910;2024-03-02T05:27:52;5.90;99.90
33095;DHT22;19459;53.044;8.910;2024-03-02T05:30:17;5.90;99.90
33095;DHT22;19459;53.044;8.910;2024-03-02T05:32:43;6.00;99.90
33095;DHT22;19459;53.044;8.910;2024-03-02T05:35:09;6.00;99.90
33095;DHT22;19459;53.044;8.910;2024-03-02T05:37:36;5.90;99.90
33095;DHT22;19459;53.044;8.910;2024-03-02T05:40:02;5.80;99.90
33095;DHT22;19459;53.044;8.910;2024-03-02T05:42:28;5.80;99.90
33095;DHT22;19459;53.044;8.910;2024-03-02T05:44:54;5.80;99.90
33095;DHT22;19459;53.044;8.910;2024-03-02T05:47:20;5.80;99.90
33095;DHT22;19459;53.044;8.910;2024-03-02T05:49:46;5.80;99.90
33095;DHT22;19459;53.044;8.910;2024-03-02T05:52:11;5.80;99.90
33095;DHT22;19459;53.044;8.910;2024-03-02T05:54:37;5.80;99.90
33095;DHT22;19459;53.044;8.910;2024-03-02T05:57:04;5.80;99.90
33095;DHT22;19459;53.044;8.910;2024-03-02T05:59:42;5.80;99.90
33095;DHT22;19459;53.044;8.910;2024-03-02T06:02:09;5.80;99.90
33095;DHT22;19459;53.044;8.910;2024-03-02T06:04:35;5.80;99.90
33095;DHT22;19459;53.044;8.910;2024-03-02T06:07:00;5.90;99.90
33095;DHT22;19459;53.044;8.910;2024-03-02T06:09:26;5.80;99.90
33095;DHT22;19459;53.044;8.910;2024-03-02T06:11:52;5.90;99.90
33095;DHT22;19459;53.044;8.910;2024-03-02T06:14:18;6.00;99.90
33095;DHT22;19459;53.044;8.910;2024-03-02T06:16:43;6.00;99.90
33095;DHT22;19459;53.044;8.910;2024-03-02T06:19:12;6.00;99.90
33095;DHT22;19459;53.044;8.910;2024-03-02T06:21:38;5.90;99.90
33095;DHT22;19459;53.044;8.910;2024-03-02T06:24:04;6.00;99.90
33095;DHT22;19459;53.044;8.910;2024-03-02T06:26:30;6.00;99.90
33095;DHT22;19459;53.044;8.910;2024-03-02T06:28:57;6.10;99.90
33095;DHT22;19459;53.044;8.910;2024-03-02T06:31:22;6.10;99.90
33095;DHT22;19459;53.044;8.910;2024-03-02T06:33:48;6.20;99.90
33095;DHT22;19459;53.044;8.910;2024-03-02T06:36:14;6.20;99.90
33095;DHT22;19459;53.044;8.910;2024-03-02T06:38:41;6.10;99.90
33095;DHT22;19459;53.044;8.910;2024-03-02T06:41:06;6.10;99.90
33095;DHT22;19459;53.044;8.910;2024-03-02T06:43:33;6.10;99.90
33095;DHT22;19459;53.044;8.910;2024-03-02T06:45:58;6.20;99.90
33095;DHT22;19459;53.044;8.910;2024-03-02T06:48:24;6.20;99.90
33095;DHT22;19459;53.044;8.910;2024-03-02T06:50:50;6.20;99.90
33095;DHT22;19459;53.044;8.910;2024-03-02T06:53:17;6.30;99.90
33095;DHT22;19459;53.044;8.910;2024-03-02T06:55:46;6.30;99.90
33095;DHT22;19459;53.044;8.910;2024-03-02T06:58:15;6.40;99.90
33095;DHT22;19459;53.044;8.910;2024-03-02T07:00:44;6.50;99.90
33095;DHT22;19459;53.044;8.910;2024-03-02T07:03:10;6.50;99.90
33095;DHT22;19459;53.044;8.910;2024-03-02T07:05:36;6.60;99.90
33095;DHT22;19459;53.044;8.910;2024-03-02T07:08:01;6.60;99.90
33095;DHT22;19459;53.044;8.910;2024-03-02T07:10:28;6.70;99.90
33095;DHT22;19459;53.044;8.910;2024-03-02T07:12:54;6.60;99.90
33095;DHT22;19459;53.044;8.910;2024-03-02T07:15:20;6.70;99.90
33095;DHT22;19459;53.044;8.910;2024-03-02T07:18:04;6.70;99.90
33095;DHT22;19459;53.044;8.910;2024-03-02T07:20:30;6.70;99.90
33095;DHT22;19459;53.044;8.910;2024-03-02T07:22:56;6.80;99.90
33095;DHT22;19459;53.044;8.910;2024-03-02T07:25:21;6.90;99.90
33095;DHT22;19459;53.044;8.910;2024-03-02T07:27:47;7.00;99.90
33095;DHT22;19459;53.044;8.910;2024-03-02T07:30:16;7.10;99.90
33095;DHT22;19459;53.044;8.910;2024-03-02T07:32:42;7.10;99.90
33095;DHT22;19459;53.044;8.910;2024-03-02T07:35:12;7.20;99.90
33095;DHT22;19459;53.044;8.910;2024-03-02T07:37:39;7.20;99.90
33095;DHT22;19459;53.044;8.910;2024-03-02T07:40:05;7.30;99.90
33095;DHT22;19459;53.044;8.910;2024-03-02T07:42:34;7.40;99.90
33095;DHT22;19459;53.044;8.910;2024-03-02T07:45:00;7.40;99.90
33095;DHT22;19459;53.044;8.910;2024-03-02T07:47:26;7.50;99.90
33095;DHT22;19459;53.044;8.910;2024-03-02T07:49:52;7.70;99.90
33095;DHT22;19459;53.044;8.910;2024-03-02T07:52:18;7.70;99.90
33095;DHT22;19459;53.044;8.910;2024-03-02T07:54:43;7.80;99.90
33095;DHT22;19459;53.044;8.910;2024-03-02T07:57:09;7.80;99.90
33095;DHT22;19459;53.044;8.910;2024-03-02T07:59:36;7.80;99.90
33095;DHT22;19459;53.044;8.910;2024-03-02T08:02:02;7.80;99.90
33095;DHT22;19459;53.044;8.910;2024-03-02T08:04:28;7.90;99.90
33095;DHT22;19459;53.044;8.910;2024-03-02T08:06:54;7.90;99.90
33095;DHT22;19459;53.044;8.910;2024-03-02T08:09:20;8.00;99.90
33095;DHT22;19459;53.044;8.910;2024-03-02T08:11:46;8.00;99.90
33095;DHT22;19459;53.044;8.910;2024-03-02T08:14:11;8.10;99.90
33095;DHT22;19459;53.044;8.910;2024-03-02T08:16:37;8.10;99.90
33095;DHT22;19459;53.044;8.910;2024-03-02T08:19:03;8.10;99.90
33095;DHT22;19459;53.044;8.910;2024-03-02T08:21:29;8.10;99.90
33095;DHT22;19459;53.044;8.910;2024-03-02T08:23:56;8.20;99.90
33095;DHT22;19459;53.044;8.910;2024-03-02T08:26:23;8.20;99.90
33095;DHT22;19459;53.044;8.910;2024-03-02T08:28:49;8.30;99.90
33095;DHT22;19459;53.044;8.910;2024-03-02T08:31:15;8.20;99.90
33095;DHT22;19459;53.044;8.910;2024-03-02T08:33:40;8.30;99.90
33095;DHT22;19459;53.044;8.910;2024-03-02T08:36:06;8.20;99.90
33095;DHT22;19459;53.044;8.910;2024-03-02T08:38:35;8.30;99.90
33095;DHT22;19459;53.044;8.910;2024-03-02T08:41:00;8.20;99.90
33095;DHT22;19459;53.044;8.910;2024-03-02T08:43:26;8.30;99.90
33095;DHT22;19459;53.044;8.910;2024-03-02T08:45:52;8.30;99.90
33095;DHT22;19459;53.044;8.910;2024-03-02T08:48:18;8.30;99.90
33095;DHT22;19459;53.044;8.910;2024-03-02T08:50:45;8.30;99.90
33095;DHT22;19459;53.044;8.910;2024-03-02T08:53:11;8.40;99.90
33095;DHT22;19459;53.044;8.910;2024-03-02T08:55:45;8.50;99.90
33095;DHT22;19459;53.044;8.910;2024-03-02T08:58:11;8.70;99.90
33095;DHT22;19459;53.044;8.910;2024-03-02T09:00:38;8.80;99.90
33095;DHT22;19459;53.044;8.910;2024-03-02T09:03:04;8.90;99.90
33095;DHT22;19459;53.044;8.910;2024-03-02T09:05:30;9.00;99.90
33095;DHT22;19459;53.044;8.910;2024-03-02T09:07:55;9.10;99.90
33095;DHT22;19459;53.044;8.910;2024-03-02T09:10:21;9.20;99.90
33095;DHT22;19459;53.044;8.910;2024-03-02T09:12:47;9.30;99.90
33095;DHT22;19459;53.044;8.910;2024-03-02T09:15:13;9.50;99.90
33095;DHT22;19459;53.044;8.910;2024-03-02T09:17:39;9.60;99.90
33095;DHT22;19459;53.044;8.910;2024-03-02T09:20:05;9.80;99.90
33095;DHT22;19459;53.044;8.910;2024-03-02T09:22:31;9.80;99.90
33095;DHT22;19459;53.044;8.910;2024-03-02T09:24:57;9.90;99.90
33095;DHT22;19459;53.044;8.910;2024-03-02T09:27:23;10.00;99.90
33095;DHT22;19459;53.044;8.910;2024-03-02T09:29:49;10.20;99.90
33095;DHT22;19459;53.044;8.910;2024-03-02T09:32:15;10.40;99.90
33095;DHT22;19459;53.044;8.910;2024-03-02T09:34:41;10.40;99.90
33095;DHT22;19459;53.044;8.910;2024-03-02T09:37:07;10.60;99.90
33095;DHT22;19459;53.044;8.910;2024-03-02T09:39:36;10.90;99.90
33095;DHT22;19459;53.044;8.910;2024-03-02T09:42:04;11.10;99.90
33095;DHT22;19459;53.044;8.910;2024-03-02T09:44:30;11.30;99.90
33095;DHT22;19459;53.044;8.910;2024-03-02T09:46:55;11.10;99.90
33095;DHT22;19459;53.044;8.910;2024-03-02T09:49:22;11.00;99.90
33095;DHT22;19459;53.044;8.910;2024-03-02T09:51:48;11.20;99.90
33095;DHT22;19459;53.044;8.910;2024-03-02T09:54:18;11.20;99.90
33095;DHT22;19459;53.044;8.910;2024-03-02T09:56:44;11.10;99.90
33095;DHT22;19459;53.044;8.910;2024-03-02T09:59:10;11.10;99.90
33095;DHT22;19459;53.044;8.910;2024-03-02T10:01:36;11.20;99.90
33095;DHT22;19459;53.044;8.910;2024-03-02T10:04:02;11.20;99.90
33095;DHT22;19459;53.044;8.910;2024-03-02T10:06:28;11.30;99.90
33095;DHT22;19459;53.044;8.910;2024-03-02T10:08:55;11.40;99.90
33095;DHT22;19459;53.044;8.910;2024-03-02T10:11:31;11.30;99.90
33095;DHT22;19459;53.044;8.910;2024-03-02T10:14:13;11.40;99.90
33095;DHT22;19459;53.044;8.910;2024-03-02T10:16:43;11.50;99.90
33095;DHT22;19459;53.044;8.910;2024-03-02T10:19:19;11.70;99.90
33095;DHT22;19459;53.044;8.910;2024-03-02T10:21:50;11.70;99.90
33095;DHT22;19459;53.044;8.910;2024-03-02T10:24:17;11.80;99.90
33095;DHT22;19459;53.044;8.910;2024-03-02T10:26:47;11.70;99.90
33095;DHT22;19459;53.044;8.910;2024-03-02T10:29:14;12.00;99.90
33095;DHT22;19459;53.044;8.910;2024-03-02T10:31:44;12.30;99.90
33095;DHT22;19459;53.044;8.910;2024-03-02T10:34:13;12.60;99.90
33095;DHT22;19459;53.044;8.910;2024-03-02T10:36:44;12.70;99.90
33095;DHT22;19459;53.044;8.910;2024-03-02T10:39:13;12.80;99.90
33095;DHT22;19459;53.044;8.910;2024-03-02T10:41:40;13.10;99.90
33095;DHT22;19459;53.044;8.910;2024-03-02T10:44:08;13.10;99.90
33095;DHT22;19459;53.044;8.910;2024-03-02T10:46:38;13.10;99.90
33095;DHT22;19459;53.044;8.910;2024-03-02T10:49:05;13.00;99.90
33095;DHT22;19459;53.044;8.910;2024-03-02T10:51:33;13.00;99.90
33095;DHT22;19459;53.044;8.910;2024-03-02T10:54:02;13.20;99.90
33095;DHT22;19459;53.044;8.910;2024-03-02T10:56:31;13.20;99.90
33095;DHT22;19459;53.044;8.910;2024-03-02T10:59:33;13.50;99.90
33095;DHT22;19459;53.044;8.910;2024-03-02T11:02:01;13.80;99.90
33095;DHT22;19459;53.044;8.910;2024-03-02T11:04:30;13.90;99.90
33095;DHT22;19459;53.044;8.910;2024-03-02T11:09:39;13.60;99.90
33095;DHT22;19459;53.044;8.910;2024-03-02T11:12:13;13.70;99.90
33095;DHT22;19459;53.044;8.910;2024-03-02T11:14:44;13.90;99.90
33095;DHT22;19459;53.044;8.910;2024-03-02T11:17:12;13.90;99.90
33095;DHT22;19459;53.044;8.910;2024-03-02T11:19:41;13.70;99.90
33095;DHT22;19459;53.044;8.910;2024-03-02T11:22:08;13.90;99.90
33095;DHT22;19459;53.044;8.910;2024-03-02T11:24:34;14.20;99.90
33095;DHT22;19459;53.044;8.910;2024-03-02T11:27:02;14.60;99.90
33095;DHT22;19459;53.044;8.910;2024-03-02T11:32:06;14.90;99.90
33095;DHT22;19459;53.044;8.910;2024-03-02T11:34:44;14.80;99.90
33095;DHT22;19459;53.044;8.910;2024-03-02T11:37:13;14.90;99.90
33095;DHT22;19459;53.044;8.910;2024-03-02T11:39:46;15.00;99.90
33095;DHT22;19459;53.044;8.910;2024-03-02T11:42:15;15.40;99.90
33095;DHT22;19459;53.044;8.910;2024-03-02T11:44:46;15.60;99.90
33095;DHT22;19459;53.044;8.910;2024-03-02T11:47:15;15.60;99.90
33095;DHT22;19459;53.044;8.910;2024-03-02T11:49:45;15.70;99.90
33095;DHT22;19459;53.044;8.910;2024-03-02T11:52:15;15.60;99.90
33095;DHT22;19459;53.044;8.910;2024-03-02T11:54:45;16.00;99.90
33095;DHT22;19459;53.044;8.910;2024-03-02T11:57:16;16.40;99.90
33095;DHT22;19459;53.044;8.910;2024-03-02T11:59:46;16.10;99.90
33095;DHT22;19459;53.044;8.910;2024-03-02T12:02:19;16.50;99.90
33095;DHT22;19459;53.044;8.910;2024-03-02T12:04:47;16.70;99.90
33095;DHT22;19459;53.044;8.910;2024-03-02T12:07:23;17.00;99.90
33095;DHT22;19459;53.044;8.910;2024-03-02T12:09:59;16.70;99.90
33095;DHT22;19459;53.044;8.910;2024-03-02T12:12:26;16.80;99.90
33095;DHT22;19459;53.044;8.910;2024-03-02T12:14:53;16.80;99.90
33095;DHT22;19459;53.044;8.910;2024-03-02T12:17:21;17.20;99.90
33095;DHT22;19459;53.044;8.910;2024-03-02T12:19:47;16.50;99.90
33095;DHT22;19459;53.044;8.910;2024-03-02T12:22:14;16.50;99.90
33095;DHT22;19459;53.044;8.910;2024-03-02T12:24:41;16.10;99.90
33095;DHT22;19459;53.044;8.910;2024-03-02T12:27:07;16.40;99.90
33095;DHT22;19459;53.044;8.910;2024-03-02T12:29:34;16.70;99.90
33095;DHT22;19459;53.044;8.910;2024-03-02T12:32:00;16.00;99.90
33095;DHT22;19459;53.044;8.910;2024-03-02T12:34:27;16.70;99.90
33095;DHT22;19459;53.044;8.910;2024-03-02T12:36:53;17.20;99.90
33095;DHT22;19459;53.044;8.910;2024-03-02T12:39:19;17.60;99.90
33095;DHT22;19459;53.044;8.910;2024-03-02T12:41:55;17.30;99.90
33095;DHT22;19459;53.044;8.910;2024-03-02T12:44:23;17.50;99.90
33095;DHT22;19459;53.044;8.910;2024-03-02T12:46:49;17.50;99.90
33095;DHT22;19459;53.044;8.910;2024-03-02T12:49:15;16.50;99.90
33095;DHT22;19459;53.044;8.910;2024-03-02T12:51:42;16.30;99.90
33095;DHT22;19459;53.044;8.910;2024-03-02T12:54:09;15.90;99.90
33095;DHT22;19459;53.044;8.910;2024-03-02T12:56:40;16.00;99.90
33095;DHT22;19459;53.044;8.910;2024-03-02T12:59:21;16.70;99.90
33095;DHT22;19459;53.044;8.910;2024-03-02T13:01:53;16.30;99.90
33095;DHT22;19459;53.044;8.910;2024-03-02T13:04:24;16.40;99.90
33095;DHT22;19459;53.044;8.910;2024-03-02T13:06:52;16.40;99.90
33095;DHT22;19459;53.044;8.910;2024-03-02T13:09:18;16.30;99.90
33095;DHT22;19459;53.044;8.910;2024-03-02T13:11:44;16.90;99.90
33095;DHT22;19459;53.044;8.910;2024-03-02T13:14:11;16.80;99.90
33095;DHT22;19459;53.044;8.910;2024-03-02T13:16:40;16.60;99.90
33095;DHT22;19459;53.044;8.910;2024-03-02T13:19:11;16.80;99.90
33095;DHT22;19459;53.044;8.910;2024-03-02T13:21:37;16.50;99.90
33095;DHT22;19459;53.044;8.910;2024-03-02T13:24:04;16.60;99.90
33095;DHT22;19459;53.044;8.910;2024-03-02T13:26:31;16.90;99.90
33095;DHT22;19459;53.044;8.910;2024-03-02T13:28:59;16.80;99.90
33095;DHT22;19459;53.044;8.910;2024-03-02T13:31:25;16.90;99.90
33095;DHT22;19459;53.044;8.910;2024-03-02T13:33:50;16.80;99.90
33095;DHT22;19459;53.044;8.910;2024-03-02T13:36:16;16.60;99.90
33095;DHT22;19459;53.044;8.910;2024-03-02T13:38:42;16.00;99.90
33095;DHT22;19459;53.044;8.910;2024-03-02T13:41:08;15.70;99.90
33095;DHT22;19459;53.044;8.910;2024-03-02T13:43:34;15.90;99.90
33095;DHT22;19459;53.044;8.910;2024-03-02T13:46:01;15.80;99.90
33095;DHT22;19459;53.044;8.910;2024-03-02T13:48:27;15.90;99.90
33095;DHT22;19459;53.044;8.910;2024-03-02T13:50:53;16.30;99.90
33095;DHT22;19459;53.044;8.910;2024-03-02T13:53:20;16.70;99.90
33095;DHT22;19459;53.044;8.910;2024-03-02T13:55:48;16.70;99.90
33095;DHT22;19459;53.044;8.910;2024-03-02T13:58:14;16.40;99.90
33095;DHT22;19459;53.044;8.910;2024-03-02T14:00:40;16.40;99.90
33095;DHT22;19459;53.044;8.910;2024-03-02T14:03:06;16.80;99.90
33095;DHT22;19459;53.044;8.910;2024-03-02T14:05:33;16.90;99.90
33095;DHT22;19459;53.044;8.910;2024-03-02T14:07:59;16.70;99.90
33095;DHT22;19459;53.044;8.910;2024-03-02T14:10:27;16.20;99.90
33095;DHT22;19459;53.044;8.910;2024-03-02T14:12:54;16.30;99.90
33095;DHT22;19459;53.044;8.910;2024-03-02T14:15:21;16.30;99.90
33095;DHT22;19459;53.044;8.910;2024-03-02T14:17:47;16.70;99.90
33095;DHT22;19459;53.044;8.910;2024-03-02T14:20:13;16.40;99.90
33095;DHT22;19459;53.044;8.910;2024-03-02T14:22:39;16.30;99.90
33095;DHT22;19459;53.044;8.910;2024-03-02T14:25:05;16.80;99.90
33095;DHT22;19459;53.044;8.910;2024-03-02T14:27:31;17.10;99.90
33095;DHT22;19459;53.044;8.910;2024-03-02T14:29:57;17.20;99.90
33095;DHT22;19459;53.044;8.910;2024-03-02T14:32:23;17.40;99.90
33095;DHT22;19459;53.044;8.910;2024-03-02T14:34:49;17.40;99.90
33095;DHT22;19459;53.044;8.910;2024-03-02T14:37:15;17.10;99.90
33095;DHT22;19459;53.044;8.910;2024-03-02T14:39:41;16.70;99.90
33095;DHT22;19459;53.044;8.910;2024-03-02T14:42:07;16.80;99.90
33095;DHT22;19459;53.044;8.910;2024-03-02T14:44:33;16.90;99.90
33095;DHT22;19459;53.044;8.910;2024-03-02T14:47:02;16.70;99.90
33095;DHT22;19459;53.044;8.910;2024-03-02T14:49:30;16.80;99.90
33095;DHT22;19459;53.044;8.910;2024-03-02T14:51:56;17.20;99.90
33095;DHT22;19459;53.044;8.910;2024-03-02T14:54:22;17.10;99.90
33095;DHT22;19459;53.044;8.910;2024-03-02T14:56:47;17.20;99.90
33095;DHT22;19459;53.044;8.910;2024-03-02T14:59:14;17.20;99.90
33095;DHT22;19459;53.044;8.910;2024-03-02T15:01:40;17.40;99.90
33095;DHT22;19459;53.044;8.910;2024-03-02T15:04:06;17.00;99.90
33095;DHT22;19459;53.044;8.910;2024-03-02T15:06:32;17.00;99.90
33095;DHT22;19459;53.044;8.910;2024-03-02T15:08:58;16.80;99.90
33095;DHT22;19459;53.044;8.910;2024-03-02T15:11:24;16.90;99.90
33095;DHT22;19459;53.044;8.910;2024-03-02T15:13:50;16.70;99.90
33095;DHT22;19459;53.044;8.910;2024-03-02T15:16:16;17.00;99.90
33095;DHT22;19459;53.044;8.910;2024-03-02T15:18:42;16.80;99.90
33095;DHT22;19459;53.044;8.910;2024-03-02T15:21:08;16.90;99.90
33095;DHT22;19459;53.044;8.910;2024-03-02T15:23:34;16.90;99.90
33095;DHT22;19459;53.044;8.910;2024-03-02T15:26:00;16.90;99.90
33095;DHT22;19459;53.044;8.910;2024-03-02T15:28:25;16.90;99.90
33095;DHT22;19459;53.044;8.910;2024-03-02T15:30:51;16.90;99.90
33095;DHT22;19459;53.044;8.910;2024-03-02T15:33:17;16.70;99.90
33095;DHT22;19459;53.044;8.910;2024-03-02T15:35:43;16.50;99.90
33095;DHT22;19459;53.044;8.910;2024-03-02T15:38:09;16.30;99.90
33095;DHT22;19459;53.044;8.910;2024-03-02T15:40:38;16.10;99.90
33095;DHT22;19459;53.044;8.910;2024-03-02T15:43:04;15.80;99.90
33095;DHT22;19459;53.044;8.910;2024-03-02T15:45:30;15.60;99.90
33095;DHT22;19459;53.044;8.910;2024-03-02T15:47:59;15.60;99.90
33095;DHT22;19459;53.044;8.910;2024-03-02T15:50:26;15.50;99.90